Time;durP1;ratioP1;P1;durP2;ratioP2;P2;SDS_P1;SDS_P2;PMS_P1;PMS_P2;Temp;Humidity;BMP_temperature;BMP_pressure;BME280_temperature;BME280_humidity;BME280_pressure;Samples;Min_cycle;Max_cycle;Signal;HPM_P1;HPM_P2
2021/03/17 00:01:56;;;;;;;21.70;15.70;;;;;;;4.02;100.00;102619.84;5007397;28;20038;-69
2021/03/17 00:04:22;;;;;;;19.83;14.98;;;;;;;4.01;100.00;102612.81;5006289;28;20493;-69
2021/03/17 00:06:47;;;;;;;19.30;13.68;;;;;;;3.94;100.00;102610.47;5007170;28;20038;-69
2021/03/17 00:09:12;;;;;;;16.67;13.43;;;;;;;3.68;100.00;102585.16;5008855;28;20485;-69
2021/03/17 00:11:38;;;;;;;19.40;14.18;;;;;;;3.89;100.00;102624.81;5008987;28;20029;-69
2021/03/17 00:14:03;;;;;;;15.93;12.90;;;;;;;3.87;100.00;102626.66;5008282;28;20033;-69
2021/03/17 00:16:29;;;;;;;15.70;12.13;;;;;;;3.89;100.00;102624.81;5007337;28;20042;-70
2021/03/17 00:18:55;;;;;;;15.80;11.20;;;;;;;3.88;100.00;102621.28;5006950;28;20513;-69
2021/03/17 00:21:21;;;;;;;13.77;11.32;;;;;;;3.90;100.00;102615.97;5009000;28;20034;-72
2021/03/17 00:23:47;;;;;;;11.77;9.88;;;;;;;3.93;100.00;102621.13;5008135;28;20026;-72
2021/03/17 00:26:13;;;;;;;11.25;9.18;;;;;;;3.92;100.00;102617.59;5008077;28;20041;-72
2021/03/17 00:28:38;;;;;;;10.85;8.02;;;;;;;3.93;100.00;102616.69;5005931;28;20366;-69
2021/03/17 00:31:03;;;;;;;11.95;8.90;;;;;;;3.94;100.00;102628.09;5005930;28;20465;-69
2021/03/17 00:33:29;;;;;;;10.30;8.68;;;;;;;3.76;100.00;102603.31;5006857;28;20045;-69
2021/03/17 00:35:54;;;;;;;10.50;8.43;;;;;;;3.89;100.00;102623.00;4999866;28;20042;-69
2021/03/17 00:38:20;;;;;;;10.88;9.07;;;;;;;3.86;100.00;102623.16;5006745;28;20034;-69
2021/03/17 00:40:46;;;;;;;13.02;9.43;;;;;;;3.83;100.00;102628.56;5007442;28;20469;-69
2021/03/17 00:43:11;;;;;;;12.75;10.43;;;;;;;3.82;100.00;102632.97;5006299;28;20492;-69
2021/03/17 00:45:37;;;;;;;11.20;9.95;;;;;;;3.81;100.00;102631.25;5005397;28;20045;-70
2021/03/17 00:48:03;;;;;;;12.05;9.75;;;;;;;3.86;100.00;102641.66;5006904;28;20026;-72
2021/03/17 00:50:28;;;;;;;13.68;11.13;;;;;;;3.83;100.00;102641.78;5005780;28;20026;-72
2021/03/17 00:52:55;;;;;;;13.85;10.95;;;;;;;3.85;100.00;102641.69;5006905;28;20065;-72
2021/03/17 00:55:21;;;;;;;16.00;12.25;;;;;;;3.87;100.00;102650.41;5006727;28;20104;-71
2021/03/17 00:57:46;;;;;;;17.65;13.90;;;;;;;3.89;100.00;102648.56;5002978;28;20496;-72
2021/03/17 01:00:13;;;;;;;17.20;13.88;;;;;;;3.93;100.00;102658.09;5006845;28;20045;-69
2021/03/17 01:02:39;;;;;;;20.00;15.55;;;;;;;3.95;100.00;102659.75;5002016;28;20598;-72
2021/03/17 01:05:05;;;;;;;18.42;15.27;;;;;;;4.01;100.00;102660.38;5003935;28;20061;-72
2021/03/17 01:07:31;;;;;;;21.52;17.35;;;;;;;4.05;100.00;102654.06;5006772;28;20029;-71
2021/03/17 01:09:56;;;;;;;25.05;18.58;;;;;;;4.09;100.00;102659.13;5007751;28;20416;-72
2021/03/17 01:12:22;;;;;;;23.52;18.70;;;;;;;4.09;100.00;102653.84;5005521;28;20425;-70
2021/03/17 01:14:48;;;;;;;21.70;17.98;;;;;;;4.12;100.00;102666.94;5007717;28;20065;-69
2021/03/17 01:17:14;;;;;;;22.73;18.45;;;;;;;4.13;100.00;102657.25;5004938;28;20033;-69
2021/03/17 01:19:40;;;;;;;24.67;18.73;;;;;;;4.11;100.00;102665.22;5006081;28;20149;-72
2021/03/17 01:22:05;;;;;;;24.48;19.95;;;;;;;4.10;100.00;102663.50;5018636;28;20164;-72
2021/03/17 01:24:31;;;;;;;27.17;19.90;;;;;;;4.12;100.00;102668.72;5002145;28;20029;-69
2021/03/17 01:26:57;;;;;;;26.70;21.17;;;;;;;4.12;100.00;102677.50;5004830;28;20033;-69
2021/03/17 01:29:23;;;;;;;27.60;20.85;;;;;;;4.13;100.00;102676.59;5000961;28;20041;-69
2021/03/17 01:31:48;;;;;;;24.10;19.95;;;;;;;4.18;100.00;102673.75;5005082;28;20029;-69
2021/03/17 01:34:14;;;;;;;24.17;19.05;;;;;;;3.88;100.00;102634.50;5008576;28;20030;-69
2021/03/17 01:36:39;;;;;;;23.52;18.30;;;;;;;4.18;100.00;102684.31;5004704;28;20133;-69
2021/03/17 01:39:05;;;;;;;21.75;17.90;;;;;;;4.24;100.00;102686.69;5008095;28;20025;-69
2021/03/17 01:41:31;;;;;;;23.83;17.60;;;;;;;4.04;100.00;102654.97;5006821;28;20125;-69
2021/03/17 01:43:57;;;;;;;18.27;15.75;;;;;;;4.23;100.00;102684.97;5005321;28;20030;-69
2021/03/17 01:46:23;;;;;;;18.75;15.15;;;;;;;4.19;100.00;102672.81;4987926;28;20079;-69
2021/03/17 01:48:48;;;;;;;17.20;14.18;;;;;;;4.23;100.00;102678.81;5015878;28;20544;-69
2021/03/17 01:51:14;;;;;;;14.80;12.40;;;;;;;4.24;100.00;102677.91;4989634;28;20072;-71
2021/03/17 01:53:40;;;;;;;12.98;11.63;;;;;;;4.23;100.00;102677.06;5001972;28;20030;-72
2021/03/17 01:56:06;;;;;;;12.45;11.15;;;;;;;4.23;99.99;102673.53;5006429;28;20041;-72
2021/03/17 01:58:34;;;;;;;13.95;10.85;;;;;;;4.23;100.00;102665.59;5006729;28;20034;-70
2021/03/17 02:01:00;;;;;;;11.02;9.93;;;;;;;4.26;100.00;102666.34;5007021;28;20100;-69
2021/03/17 02:03:27;;;;;;;11.02;9.77;;;;;;;4.25;99.85;102655.81;5007193;28;20038;-69
2021/03/17 02:05:53;;;;;;;12.00;10.70;;;;;;;4.23;100.00;102652.38;5011194;28;20026;-70
2021/03/17 02:08:21;;;;;;;10.30;9.20;;;;;;;4.26;100.00;102647.84;5006853;28;20034;-69
2021/03/17 02:10:48;;;;;;;11.60;10.20;;;;;;;4.25;100.00;102647.91;5004301;28;20025;-73
2021/03/17 02:13:13;;;;;;;12.95;9.85;;;;;;;4.25;100.00;102647.91;5008683;28;20519;-72
2021/03/17 02:16:09;;;;;;;11.60;9.10;;;;;;;4.27;100.00;102646.06;5010531;28;20104;-70
2021/03/17 02:19:00;;;;;;;11.48;10.18;;;;;;;4.25;100.00;102632.91;5010639;28;20100;-69
2021/03/17 02:21:34;;;;;;;11.32;9.68;;;;;;;4.27;100.00;102631.06;5009132;28;20037;-70
2021/03/17 02:24:18;;;;;;;11.63;9.65;;;;;;;4.27;100.00;102638.13;5010503;28;20042;-69
2021/03/17 02:27:09;;;;;;;12.05;9.95;;;;;;;4.29;100.00;102633.63;5005149;28;20026;-69
2021/03/17 02:29:54;;;;;;;12.38;10.02;;;;;;;4.15;100.00;102613.09;5009762;28;20037;-69
2021/03/17 02:32:38;;;;;;;10.48;9.38;;;;;;;4.33;100.00;102639.63;5011177;28;20053;-72
2021/03/17 02:35:08;;;;;;;10.85;9.73;;;;;;;4.36;100.00;102639.50;5008792;28;20662;-71
2021/03/17 02:37:39;;;;;;;12.50;10.30;;;;;;;4.36;100.00;102632.41;5009526;28;20026;-69
2021/03/17 02:40:08;;;;;;;12.52;9.85;;;;;;;4.36;99.41;102627.13;5011161;28;20068;-69
2021/03/17 02:42:37;;;;;;;12.60;10.60;;;;;;;4.22;99.90;102597.81;5009653;28;20030;-70
2021/03/17 02:45:10;;;;;;;20.05;12.20;;;;;;;4.36;100.00;102616.56;5007695;28;20045;-72
2021/03/17 02:47:47;;;;;;;13.77;11.55;;;;;;;4.28;100.00;102603.69;5009111;28;20653;-72
2021/03/17 02:50:14;;;;;;;16.70;12.02;;;;;;;4.34;99.88;102623.72;5002342;28;20038;-70
2021/03/17 02:52:44;;;;;;;14.63;12.55;;;;;;;4.37;99.97;102625.38;5009285;28;20596;-69
2021/03/17 02:55:12;;;;;;;17.10;13.32;;;;;;;4.38;99.90;102630.56;4996670;28;20035;-69
2021/03/17 02:57:39;;;;;;;15.48;12.20;;;;;;;4.26;100.00;102605.56;5009155;28;20516;-69
2021/03/17 03:00:08;;;;;;;16.27;12.02;;;;;;;4.38;99.77;102624.44;5009659;28;20049;-70
2021/03/17 03:02:34;;;;;;;14.82;11.55;;;;;;;4.40;99.98;102630.53;5002566;28;20030;-70
2021/03/17 03:05:01;;;;;;;14.05;10.55;;;;;;;4.44;99.76;102627.66;5007992;28;20056;-70
2021/03/17 03:07:30;;;;;;;14.95;10.18;;;;;;;4.24;99.44;102588.03;5008766;28;20022;-70
2021/03/17 03:09:56;;;;;;;10.93;9.30;;;;;;;4.41;99.54;102627.81;5010447;28;20105;-70
2021/03/17 03:12:22;;;;;;;9.35;8.20;;;;;;;4.44;99.35;102617.09;5007840;28;20385;-70
2021/03/17 03:14:48;;;;;;;12.23;7.68;;;;;;;4.48;99.22;102619.59;5009737;28;20425;-70
2021/03/17 03:17:14;;;;;;;10.15;7.03;;;;;;;4.51;99.46;102624.72;5006202;28;20062;-70
2021/03/17 03:19:47;;;;;;;9.70;6.32;;;;;;;4.53;98.69;102622.88;5002156;28;20050;-70
2021/03/17 03:22:13;;;;;;;9.25;6.13;;;;;;;4.51;99.36;102620.31;5007491;28;20113;-70
2021/03/17 03:24:40;;;;;;;7.05;5.82;;;;;;;4.50;99.50;102626.53;5009657;28;20144;-70
2021/03/17 03:27:08;;;;;;;5.95;5.32;;;;;;;4.54;99.09;102632.53;5005089;28;20030;-72
2021/03/17 03:29:34;;;;;;;5.70;4.72;;;;;;;4.52;99.16;102629.09;5009222;28;20041;-73
2021/03/17 03:32:01;;;;;;;7.90;4.75;;;;;;;4.53;99.70;102626.41;5006929;28;20033;-70
2021/03/17 03:34:27;;;;;;;6.40;4.60;;;;;;;4.55;99.50;102634.25;5006883;28;20062;-70
2021/03/17 03:36:52;;;;;;;7.20;4.82;;;;;;;4.53;100.00;102631.69;5004734;28;20034;-70
2021/03/17 03:39:18;;;;;;;5.93;4.60;;;;;;;4.54;99.74;102622.81;5000024;28;20021;-70
2021/03/17 03:41:43;;;;;;;6.00;4.82;;;;;;;4.53;99.52;102620.22;5006073;28;20495;-69
2021/03/17 03:44:09;;;;;;;8.13;5.22;;;;;;;4.54;99.81;102624.59;5008173;28;22071;-69
2021/03/17 03:46:36;;;;;;;7.25;5.28;;;;;;;4.54;99.68;102627.25;5007492;28;20037;-70
2021/03/17 03:49:03;;;;;;;9.02;5.28;;;;;;;4.24;99.48;102570.41;5008255;28;20489;-69
2021/03/17 03:51:30;;;;;;;7.53;5.70;;;;;;;4.58;100.00;102626.19;5008242;28;20112;-69
2021/03/17 03:54:33;;;;;;;6.28;5.30;;;;;;;4.60;99.81;102625.19;5008873;28;20052;-69
2021/03/17 03:57:13;;;;;;;8.93;5.47;;;;;;;4.64;100.00;102619.75;5006153;28;20172;-69
2021/03/17 03:59:43;;;;;;;12.23;6.40;;;;;;;4.62;100.00;102613.66;5007467;28;20029;-72
2021/03/17 04:02:11;;;;;;;12.75;7.15;;;;;;;4.62;100.00;102619.81;4997534;28;20048;-72
2021/03/17 04:04:40;;;;;;;;;;;;;;;4.62;100.00;102626.91;5004972;28;20022;-72
2021/03/17 04:07:06;;;;;;;11.88;7.00;;;;;;;4.56;100.00;102606.88;5015204;28;19909;-71
2021/03/17 04:09:38;;;;;;;7.40;5.88;;;;;;;4.49;100.00;102597.50;5008364;28;20048;-70
2021/03/17 04:12:06;;;;;;;6.78;6.10;;;;;;;4.37;100.00;102581.28;5009404;28;20030;-72
2021/03/17 04:14:34;;;;;;;10.87;6.70;;;;;;;4.68;100.00;102631.91;5008900;28;20029;-69
2021/03/17 04:17:09;;;;;;;9.50;6.82;;;;;;;4.70;100.00;102638.84;5005776;28;20029;-71
2021/03/17 04:19:37;;;;;;;9.75;6.65;;;;;;;4.73;100.00;102645.75;5006488;28;20077;-72
2021/03/17 04:22:04;;;;;;;7.85;4.63;;;;;;;4.86;100.00;102651.38;5006895;28;20065;-71
2021/03/17 04:24:30;;;;;;;6.05;4.80;;;;;;;4.55;100.00;102600.72;5007659;28;20057;-72
2021/03/17 04:26:59;;;;;;;5.43;4.70;;;;;;;4.88;100.00;102652.16;5006489;28;20025;-71
2021/03/17 04:29:26;;;;;;;10.07;4.25;;;;;;;4.94;100.00;102643.91;5008361;28;20555;-69
2021/03/17 04:31:53;;;;;;;8.23;3.95;;;;;;;4.99;99.94;102647.22;5007988;28;20048;-69
2021/03/17 04:34:19;;;;;;;5.35;4.13;;;;;;;4.89;99.71;102625.63;5008997;28;20045;-69
2021/03/17 04:36:47;;;;;;;5.53;4.18;;;;;;;5.02;99.24;102648.84;5006633;28;20045;-69
2021/03/17 04:39:12;;;;;;;5.82;4.22;;;;;;;5.00;99.38;102658.63;5008366;28;20109;-68
2021/03/17 04:41:38;;;;;;;6.47;4.32;;;;;;;5.00;99.86;102651.56;5000156;28;20053;-68
2021/03/17 04:44:04;;;;;;;6.40;3.13;;;;;;;5.06;99.03;102656.56;5005586;28;20036;-69
2021/03/17 04:46:30;;;;;;;2.85;1.73;;;;;;;5.03;97.93;102658.50;5006522;28;20038;-71
2021/03/17 04:48:56;;;;;;;2.80;1.48;;;;;;;5.00;97.38;102663.94;5008124;28;20025;-71
2021/03/17 04:51:23;;;;;;;1.38;1.20;;;;;;;4.81;97.68;102629.53;5006884;28;20034;-69
2021/03/17 04:53:49;;;;;;;2.60;1.58;;;;;;;5.00;97.23;102667.47;5008685;28;20021;-69
2021/03/17 04:56:18;;;;;;;2.58;1.70;;;;;;;5.01;97.32;102670.94;5006046;28;20030;-69
2021/03/17 04:58:45;;;;;;;2.10;1.90;;;;;;;5.01;96.76;102679.75;5003781;28;20077;-72
2021/03/17 05:01:13;;;;;;;5.53;2.70;;;;;;;4.96;97.38;102667.63;5006965;28;20532;-69
2021/03/17 05:03:41;;;;;;;6.75;2.20;;;;;;;4.71;97.19;102639.69;5007559;28;20536;-71
2021/03/17 05:06:09;;;;;;;2.83;2.10;;;;;;;4.89;97.68;102662.66;5006650;28;20036;-71
2021/03/17 05:08:37;;;;;;;4.35;2.45;;;;;;;4.73;98.54;102646.63;5008261;28;20151;-71
2021/03/17 05:11:04;;;;;;;2.70;1.95;;;;;;;4.89;98.42;102670.59;5006868;28;20034;-71
2021/03/17 05:13:30;;;;;;;4.55;2.42;;;;;;;4.83;98.54;102660.28;5024177;28;20018;-71
2021/03/17 05:15:56;;;;;;;4.30;2.70;;;;;;;4.90;97.81;102663.50;5005344;28;20061;-71
2021/03/17 05:18:24;;;;;;;5.15;2.90;;;;;;;4.89;98.03;102665.31;5005256;28;20050;-72
2021/03/17 05:20:52;;;;;;;5.97;2.80;;;;;;;4.93;97.68;102670.47;5005760;28;20057;-69
2021/03/17 05:23:19;;;;;;;7.25;2.70;;;;;;;4.90;98.20;102672.31;5009054;28;20184;-69
2021/03/17 05:25:49;;;;;;;3.92;2.60;;;;;;;4.67;97.99;102631.03;5006971;28;20025;-69
2021/03/17 05:28:17;;;;;;;3.28;2.75;;;;;;;4.92;97.28;102668.75;5006579;28;20091;-69
2021/03/17 05:30:47;;;;;;;4.30;2.55;;;;;;;4.80;97.30;102659.56;5008022;28;20040;-69
2021/03/17 05:33:13;;;;;;;2.88;2.35;;;;;;;5.00;97.12;102674.50;5005803;28;20038;-69
2021/03/17 05:35:39;;;;;;;4.80;2.95;;;;;;;4.98;96.68;102684.31;5006006;28;20437;-69
2021/03/17 05:38:06;;;;;;;6.40;3.42;;;;;;;4.93;96.72;102683.69;5007264;28;20053;-69
2021/03/17 05:40:32;;;;;;;4.65;3.90;;;;;;;4.89;96.96;102675.00;5007005;28;20080;-69
2021/03/17 05:42:59;;;;;;;4.10;3.72;;;;;;;4.82;97.08;102669.13;4972025;28;20033;-69
2021/03/17 05:45:26;;;;;;;4.60;4.10;;;;;;;4.79;97.19;102650.78;5004533;28;20049;-69
2021/03/17 05:47:51;;;;;;;7.47;4.30;;;;;;;4.81;97.39;102656.00;5008501;28;20152;-69
2021/03/17 05:50:20;;;;;;;4.25;3.72;;;;;;;4.76;97.84;102669.44;5011261;28;20496;-72
2021/03/17 05:52:45;;;;;;;;;;;;;;;4.75;98.76;102659.78;5026179;28;20396;-72
2021/03/17 05:55:13;;;;;;;5.60;4.35;;;;;;;4.48;98.44;102611.66;5010372;28;19917;-71
2021/03/17 05:57:39;;;;;;;4.57;4.03;;;;;;;4.79;98.43;102660.50;5010238;28;20171;-69
2021/03/17 06:00:07;;;;;;;5.85;4.38;;;;;;;4.74;98.78;102655.41;4993678;28;20466;-69
2021/03/17 06:02:33;;;;;;;8.05;4.93;;;;;;;4.77;98.69;102665.00;5010330;28;20511;-69
2021/03/17 06:05:03;;;;;;;6.47;4.32;;;;;;;4.84;97.87;102674.38;5008408;28;20053;-70
2021/03/17 06:07:37;;;;;;;3.90;3.40;;;;;;;4.86;96.89;102686.59;5002749;28;20034;-70
2021/03/17 06:10:03;;;;;;;6.10;3.85;;;;;;;4.84;96.26;102683.16;5011542;28;20018;-70
2021/03/17 06:12:30;;;;;;;9.85;5.93;;;;;;;4.86;97.08;102691.03;5010591;28;20539;-70
2021/03/17 06:14:56;;;;;;;4.55;4.15;;;;;;;4.71;96.39;102666.13;5010613;28;20030;-70
2021/03/17 06:17:27;;;;;;;5.97;5.00;;;;;;;4.83;97.37;102692.03;5008714;28;20515;-69
2021/03/17 06:19:59;;;;;;;6.90;6.20;;;;;;;4.83;98.01;102699.13;5009042;28;20058;-70
2021/03/17 06:22:25;;;;;;;10.05;5.70;;;;;;;4.84;98.54;102699.03;5010205;28;20026;-69
2021/03/17 06:24:51;;;;;;;7.53;5.10;;;;;;;4.46;98.02;102630.22;5009852;28;20022;-69
2021/03/17 06:27:17;;;;;;;5.38;4.88;;;;;;;4.88;97.88;102694.47;5009850;28;20092;-72
2021/03/17 06:29:42;;;;;;;5.93;5.05;;;;;;;4.62;97.88;102645.41;5011215;28;20033;-72
2021/03/17 06:32:09;;;;;;;7.20;6.22;;;;;;;4.89;97.06;102698.81;5008665;28;20519;-72
2021/03/17 06:34:44;;;;;;;7.50;5.90;;;;;;;4.91;97.80;102699.59;5003461;28;20037;-72
2021/03/17 06:37:09;;;;;;;7.85;7.00;;;;;;;4.88;97.53;102692.69;5005046;28;20034;-70
2021/03/17 06:39:35;;;;;;;8.18;6.47;;;;;;;4.90;96.59;102676.72;5010026;28;20092;-70
2021/03/17 06:42:01;;;;;;;8.35;6.28;;;;;;;4.94;96.11;102688.88;5008338;28;20025;-70
2021/03/17 06:44:29;;;;;;;9.18;6.70;;;;;;;4.88;96.82;102689.19;5009915;28;20045;-69
2021/03/17 06:47:17;;;;;;;7.25;6.53;;;;;;;4.89;96.25;102689.09;5009425;28;20025;-70
2021/03/17 06:49:43;;;;;;;;;;;;;;;4.89;97.06;102683.81;5010586;28;20037;-70
2021/03/17 06:52:28;;;;;;;7.10;6.40;;;;;;;4.93;96.05;102683.69;5008694;28;19920;-70
2021/03/17 06:55:20;;;;;;;8.43;6.90;;;;;;;4.90;95.83;102700.53;5006555;28;20057;-69
2021/03/17 06:57:50;;;;;;;9.13;6.88;;;;;;;4.95;95.85;102718.88;5007037;28;20069;-69
2021/03/17 07:00:31;;;;;;;6.50;5.90;;;;;;;4.98;95.37;102731.94;5003269;28;20129;-69
2021/03/17 07:03:05;;;;;;;6.25;4.50;;;;;;;5.01;94.43;102721.22;5007859;28;20029;-70
2021/03/17 07:05:37;;;;;;;5.13;4.63;;;;;;;5.01;93.84;102718.56;5006428;28;20030;-69
2021/03/17 07:08:04;;;;;;;7.40;3.97;;;;;;;5.02;93.43;102710.56;5006814;28;20033;-71
2021/03/17 07:10:36;;;;;;;3.83;3.03;;;;;;;4.93;92.76;102694.25;5007803;28;20234;-71
2021/03/17 07:13:06;;;;;;;3.65;2.20;;;;;;;5.06;91.57;102728.00;5009201;28;20030;-71
2021/03/17 07:15:33;;;;;;;3.47;2.25;;;;;;;5.06;91.79;102732.47;5008445;28;20025;-72
2021/03/17 07:18:26;;;;;;;3.20;1.88;;;;;;;4.99;90.16;102726.59;5007912;28;20091;-71
2021/03/17 07:20:58;;;;;;;2.13;1.65;;;;;;;4.85;91.13;102737.78;5007717;28;20500;-72
2021/03/17 07:23:45;;;;;;;4.45;2.10;;;;;;;4.84;91.89;102743.16;5008636;28;20037;-72
2021/03/17 07:26:10;;;;;;;4.55;2.05;;;;;;;4.87;nan;102756.25;5005521;28;20580;-71
2021/03/17 07:28:47;;;;;;;3.22;2.33;;;;;;;4.89;92.10;102754.38;5009827;28;20124;-71
2021/03/17 07:31:29;;;;;;;3.58;2.40;;;;;;;4.89;91.77;102754.38;5007815;28;20065;-71
2021/03/17 07:34:07;;;;;;;4.25;2.75;;;;;;;4.66;91.05;102708.66;5005740;28;20625;-71
2021/03/17 07:36:47;;;;;;;4.45;2.80;;;;;;;4.95;91.62;102750.63;5007299;28;20053;-71
2021/03/17 07:39:23;;;;;;;4.53;2.60;;;;;;;5.06;91.63;102749.19;5006218;28;20197;-72
2021/03/17 07:41:50;;;;;;;5.72;2.60;;;;;;;5.20;91.19;102748.56;5004781;28;20036;-77
2021/03/17 07:44:17;;;;;;;8.07;3.05;;;;;;;5.40;91.13;102751.22;5007027;28;20048;-72
2021/03/17 07:46:45;;;;;;;6.32;2.72;;;;;;;5.52;89.90;102753.28;5005322;28;20045;-72
2021/03/17 07:49:11;;;;;;;;;;;;;;;5.63;88.37;102758.91;5008541;28;20022;-72
2021/03/17 07:51:54;;;;;;;5.30;2.50;;;;;;;5.65;87.92;102767.66;5008545;28;19920;-71
2021/03/17 07:54:30;;;;;;;3.92;2.53;;;;;;;5.70;88.57;102767.41;5009213;28;20040;-71
2021/03/17 07:56:57;;;;;;;4.03;2.67;;;;;;;5.74;88.02;102763.69;5007561;28;20030;-72
2021/03/17 07:59:24;;;;;;;5.07;2.53;;;;;;;5.76;87.35;102775.09;5007057;28;20501;-73
2021/03/17 08:01:57;;;;;;;4.63;2.65;;;;;;;5.70;87.11;102758.63;5008532;28;20052;-72
2021/03/17 08:04:31;;;;;;;3.63;1.90;;;;;;;5.84;87.23;102777.34;5008479;28;20076;-72
2021/03/17 08:07:02;;;;;;;2.75;1.85;;;;;;;5.87;85.43;102773.69;5006723;28;20113;-72
2021/03/17 08:09:28;;;;;;;1.42;1.30;;;;;;;5.87;85.23;102776.34;5009524;28;20073;-71
2021/03/17 08:11:56;;;;;;;2.35;1.60;;;;;;;5.85;85.53;102773.75;5007098;28;20057;-72
2021/03/17 08:14:24;;;;;;;2.60;1.88;;;;;;;5.78;85.51;102777.66;5009466;28;20034;-72
2021/03/17 08:16:50;;;;;;;2.63;1.65;;;;;;;5.48;85.26;102730.50;5006931;28;20108;-71
2021/03/17 08:19:23;;;;;;;5.10;1.92;;;;;;;5.43;85.13;102725.44;5003191;28;20058;-72
2021/03/17 08:21:57;;;;;;;5.22;1.70;;;;;;;5.59;85.28;102753.84;4998979;28;20025;-72
2021/03/17 08:24:36;;;;;;;4.47;2.20;;;;;;;5.91;85.85;102788.50;5002127;28;20042;-72
2021/03/17 08:27:07;;;;;;;2.55;1.63;;;;;;;6.01;84.77;102781.00;4996247;28;20033;-72
2021/03/17 08:29:41;;;;;;;4.10;1.42;;;;;;;6.05;83.29;102787.88;5002977;28;20038;-72
2021/03/17 08:32:08;;;;;;;1.90;1.63;;;;;;;6.19;82.95;102793.34;5003323;28;20053;-71
2021/03/17 08:34:35;;;;;;;5.00;1.80;;;;;;;6.24;82.37;102793.13;4999476;28;20041;-71
2021/03/17 08:37:05;;;;;;;5.00;1.90;;;;;;;6.36;84.47;102802.25;4996424;28;20079;-71
2021/03/17 08:39:33;;;;;;;3.70;1.60;;;;;;;7.14;81.48;102792.00;4999226;28;20026;-70
2021/03/17 08:42:06;;;;;;;2.65;1.50;;;;;;;8.26;77.62;102789.28;4995699;28;20224;-70
2021/03/17 08:44:38;;;;;;;5.80;1.45;;;;;;;9.33;71.98;102774.00;4996393;28;20034;-70
2021/03/17 08:47:15;;;;;;;3.83;1.40;;;;;;;9.92;68.83;102787.06;4992226;28;20076;-71
2021/03/17 08:49:41;;;;;;;3.63;1.60;;;;;;;10.11;67.95;102753.84;4994651;28;20041;-71
2021/03/17 08:52:07;;;;;;;3.53;1.65;;;;;;;10.24;67.26;102784.09;4995058;28;20057;-70
2021/03/17 08:54:32;;;;;;;4.60;1.60;;;;;;;10.05;68.31;102780.94;4997022;28;20034;-70
2021/03/17 08:57:02;;;;;;;2.03;1.30;;;;;;;9.71;67.17;102780.50;4997261;28;20041;-70
2021/03/17 08:59:47;;;;;;;3.25;1.40;;;;;;;9.28;67.96;102776.13;5011826;28;20113;-71
2021/03/17 09:02:25;;;;;;;3.13;1.30;;;;;;;9.14;68.86;102777.84;4993476;28;20037;-71
2021/03/17 09:05:04;;;;;;;2.10;1.00;;;;;;;8.74;70.06;102785.63;4995971;28;20511;-71
2021/03/17 09:07:34;;;;;;;5.40;1.20;;;;;;;8.46;70.26;102781.06;4994859;28;20095;-71
2021/03/17 09:10:06;;;;;;;4.43;1.20;;;;;;;8.18;71.84;102780.91;5011831;28;20420;-71
2021/03/17 09:12:34;;;;;;;5.00;1.20;;;;;;;7.94;71.41;102785.84;5001006;28;20164;-71
2021/03/17 09:15:20;;;;;;;;;;;;;;;7.63;72.26;102788.44;4997919;28;20037;-71
2021/03/17 09:17:55;;;;;;;2.40;1.00;;;;;;;7.50;72.41;102787.44;4996394;28;19959;-71
2021/03/17 09:20:21;;;;;;;6.78;1.33;;;;;;;7.36;73.42;102788.16;5011559;28;20527;-71
2021/03/17 09:22:49;;;;;;;6.57;1.45;;;;;;;7.15;74.01;102796.38;4997215;28;20038;-70
2021/03/17 09:25:22;;;;;;;;;;;;;;;7.03;74.70;102794.38;5000128;28;20576;-70
2021/03/17 09:27:56;;;;;;;4.43;1.25;;;;;;;6.95;75.68;102791.25;5002470;28;19940;-70
2021/03/17 09:30:25;;;;;;;6.88;1.30;;;;;;;6.91;76.53;102798.53;5002900;28;20064;-72
2021/03/17 09:33:07;;;;;;;5.78;1.35;;;;;;;6.46;75.79;102717.75;5006074;28;20034;-72
2021/03/17 09:35:34;;;;;;;3.58;1.02;;;;;;;7.04;75.60;102801.41;4999047;28;20125;-71
2021/03/17 09:38:02;;;;;;;5.05;1.33;;;;;;;6.59;76.29;102738.28;5014736;28;20042;-71
2021/03/17 09:40:34;;;;;;;2.97;1.05;;;;;;;6.83;75.88;102782.16;5002971;28;20101;-72
2021/03/17 09:42:59;;;;;;;4.88;1.30;;;;;;;7.08;76.33;102804.75;5005034;28;20044;-72
2021/03/17 09:45:25;;;;;;;3.17;1.13;;;;;;;7.23;75.55;102784.47;5004811;28;20136;-72
2021/03/17 09:47:56;;;;;;;5.40;1.48;;;;;;;7.45;75.12;102802.75;5005218;28;20080;-72
2021/03/17 09:50:24;;;;;;;4.55;0.90;;;;;;;7.48;76.25;102802.59;5004248;28;20037;-72
2021/03/17 09:52:50;;;;;;;5.35;1.55;;;;;;;7.57;75.22;102806.53;5008424;28;20060;-72
2021/03/17 09:55:34;;;;;;;9.82;2.50;;;;;;;7.70;74.39;102798.72;5001785;28;20137;-70
2021/03/17 09:58:06;;;;;;;6.75;1.65;;;;;;;7.70;74.98;102794.28;5005032;28;20022;-70
2021/03/17 10:00:33;;;;;;;3.15;1.17;;;;;;;7.70;74.67;102783.66;5005281;28;20044;-70
2021/03/17 10:03:00;;;;;;;4.35;1.20;;;;;;;7.68;74.17;102784.66;5005212;28;20022;-71
2021/03/17 10:05:27;;;;;;;6.07;1.48;;;;;;;7.43;75.96;102741.75;5002674;28;20064;-71
2021/03/17 10:07:53;;;;;;;4.20;0.90;;;;;;;7.68;73.53;102779.34;5020341;28;20038;-70
2021/03/17 10:10:20;;;;;;;2.33;1.17;;;;;;;7.74;74.38;102784.31;5006406;28;20099;-71
2021/03/17 10:12:47;;;;;;;4.30;1.20;;;;;;;7.92;74.50;102785.06;4988210;28;20025;-72
2021/03/17 10:15:14;;;;;;;5.22;1.40;;;;;;;7.95;74.53;102766.28;5002965;28;20034;-72
2021/03/17 10:17:42;;;;;;;4.75;0.88;;;;;;;8.22;72.94;102777.09;5002467;28;20041;-72
2021/03/17 10:20:15;;;;;;;4.40;1.10;;;;;;;8.49;72.35;102787.09;5019324;28;20049;-71
2021/03/17 10:22:42;;;;;;;6.03;1.30;;;;;;;8.71;70.76;102780.50;4987314;28;20338;-70
2021/03/17 10:25:13;;;;;;;3.22;1.10;;;;;;;8.75;70.32;102783.81;5001105;28;20040;-70
2021/03/17 10:27:42;;;;;;;5.80;1.42;;;;;;;8.63;70.99;102774.75;5003891;28;20028;-70
2021/03/17 10:30:14;;;;;;;4.53;1.35;;;;;;;8.20;70.33;102732.94;5002492;28;20034;-70
2021/03/17 10:32:42;;;;;;;4.03;0.90;;;;;;;8.52;69.36;102780.75;5003070;28;20040;-72
2021/03/17 10:35:11;;;;;;;2.50;1.00;;;;;;;8.13;69.34;102772.34;5002355;28;20033;-70
2021/03/17 10:37:38;;;;;;;5.90;1.40;;;;;;;7.81;71.47;102780.38;4999835;28;20022;-72
2021/03/17 10:40:18;;;;;;;4.47;1.30;;;;;;;7.72;71.90;102780.91;5001519;28;20512;-73
2021/03/17 10:42:56;;;;;;;3.00;1.05;;;;;;;7.65;72.87;102769.75;4988075;28;20026;-70
2021/03/17 10:45:29;;;;;;;3.40;1.15;;;;;;;7.88;73.75;102779.09;4998115;28;20040;-73
2021/03/17 10:47:55;;;;;;;2.55;1.30;;;;;;;8.26;72.46;102783.97;5007720;28;20527;-72
2021/03/17 10:50:33;;;;;;;3.60;1.08;;;;;;;8.44;71.49;102778.53;5004627;28;20044;-73
2021/03/17 10:52:59;;;;;;;4.75;1.27;;;;;;;8.73;68.26;102774.13;5004816;28;20025;-73
2021/03/17 10:55:28;;;;;;;5.07;1.17;;;;;;;8.76;67.72;102783.72;5000616;28;20148;-73
2021/03/17 10:58:14;;;;;;;4.22;1.20;;;;;;;8.66;68.42;102778.13;4989279;28;20076;-72
2021/03/17 11:00:40;;;;;;;6.03;0.98;;;;;;;8.45;67.57;102782.03;5002850;28;20495;-73
2021/03/17 11:03:25;;;;;;;4.40;0.95;;;;;;;8.36;68.18;102784.28;4998447;28;20030;-73
2021/03/17 11:05:53;;;;;;;5.63;1.10;;;;;;;8.32;68.14;102780.09;5016822;28;20610;-71
2021/03/17 11:08:19;;;;;;;5.10;1.20;;;;;;;8.18;68.09;102786.25;5005291;28;20466;-71
2021/03/17 11:11:05;;;;;;;3.08;1.20;;;;;;;8.08;70.62;102761.97;5005280;28;20093;-71
2021/03/17 11:13:33;;;;;;;1.73;1.25;;;;;;;8.11;70.20;102783.06;5001525;28;20030;-69
2021/03/17 11:15:59;;;;;;;6.72;1.38;;;;;;;8.04;72.21;102775.53;5005553;28;20124;-71
2021/03/17 11:18:45;;;;;;;2.67;1.40;;;;;;;7.78;74.72;102765.47;5006927;28;20029;-75
2021/03/17 11:21:22;;;;;;;3.70;1.30;;;;;;;7.74;73.17;102784.31;5004661;28;20103;-70
2021/03/17 11:23:48;;;;;;;3.20;1.45;;;;;;;7.47;74.05;102756.56;5006032;28;20034;-70
2021/03/17 11:26:29;;;;;;;2.53;1.05;;;;;;;7.46;75.43;102772.59;5003431;28;20029;-74
2021/03/17 11:28:56;;;;;;;6.15;1.20;;;;;;;7.43;75.05;102778.94;5017637;28;20091;-74
2021/03/17 11:31:32;;;;;;;2.35;0.77;;;;;;;7.26;76.81;102779.00;5002810;28;20032;-74
2021/03/17 11:33:58;;;;;;;3.03;1.23;;;;;;;7.01;76.67;102736.03;5016843;28;20013;-71
2021/03/17 11:36:25;;;;;;;2.88;0.80;;;;;;;6.71;77.60;102670.44;5000326;28;20041;-71
2021/03/17 11:38:51;;;;;;;4.07;1.00;;;;;;;7.43;78.25;102751.50;5002995;28;20064;-71
2021/03/17 11:41:18;;;;;;;3.88;1.10;;;;;;;7.74;77.30;102769.22;5002700;28;20034;-67